createdAt,value
2018-09-18T00:01:00.370Z,17.50
2018-09-18T00:13:30.177Z,17.50
2018-09-18T00:21:00.102Z,17.30
2018-09-18T00:33:30.222Z,17.10
2018-09-18T00:41:00.738Z,17.10
2018-09-18T00:43:31.792Z,17.00
2018-09-18T00:51:02.018Z,16.70
2018-09-18T01:03:32.344Z,16.60
2018-09-18T01:06:03.077Z,16.60
2018-09-18T01:08:34.185Z,16.60
2018-09-18T01:21:09.801Z,16.60
2018-09-18T01:26:11.522Z,16.60
2018-09-18T01:31:12.214Z,16.60
2018-09-18T01:43:42.302Z,16.50
2018-09-18T01:48:42.897Z,16.40
2018-09-18T01:51:13.479Z,16.30
2018-09-18T01:53:43.944Z,16.30
2018-09-18T02:03:44.581Z,16.30
2018-09-18T02:06:15.276Z,16.30
2018-09-18T02:08:45.782Z,16.30
2018-09-18T02:13:45.745Z,16.30
2018-09-18T02:21:15.705Z,16.20
2018-09-18T02:28:45.979Z,16.20
2018-09-18T02:36:16.021Z,16.20
2018-09-18T02:43:45.541Z,16.10
2018-09-18T02:46:15.901Z,16.10
2018-09-18T02:51:15.979Z,16.10
2018-09-18T03:01:17.027Z,16.00
2018-09-18T03:03:48.035Z,16.10
2018-09-18T03:11:17.911Z,16.00
2018-09-18T03:18:47.884Z,15.90
2018-09-18T03:26:18.125Z,15.90
2018-09-18T03:31:18.017Z,15.90
2018-09-18T03:48:48.528Z,15.80
2018-09-18T03:51:18.920Z,15.80
2018-09-18T03:53:49.703Z,15.80
2018-09-18T04:03:50.987Z,15.80
2018-09-18T04:06:21.964Z,15.70
2018-09-18T04:16:22.666Z,15.70
2018-09-18T04:18:53.329Z,15.70
2018-09-18T04:21:28.280Z,15.70
2018-09-18T04:31:28.265Z,15.50
2018-09-18T04:41:28.212Z,15.60
2018-09-18T04:46:29.383Z,15.60
2018-09-18T04:49:00.136Z,15.50
2018-09-18T05:06:30.344Z,15.40
2018-09-18T05:14:00.925Z,15.20
2018-09-18T05:16:31.937Z,15.30
2018-09-18T05:34:02.246Z,15.60
2018-09-18T05:46:33.496Z,15.80
2018-09-18T05:49:03.890Z,16.00
2018-09-18T06:01:34.290Z,16.10
2018-09-18T06:11:35.275Z,16.40
2018-09-18T06:14:06.285Z,16.50
2018-09-18T06:29:06.855Z,16.90
2018-09-18T06:41:39.074Z,17.40
2018-09-18T06:44:10.157Z,17.40
2018-09-18T06:54:11.111Z,17.80
2018-09-18T06:56:41.820Z,17.90
2018-09-18T06:59:12.223Z,18.00
2018-09-18T07:16:42.739Z,18.60
2018-09-18T07:19:13.186Z,18.60
2018-09-18T07:21:43.912Z,18.70
2018-09-18T07:46:44.420Z,20.00
2018-09-18T07:51:44.909Z,20.10
2018-09-18T07:54:15.263Z,20.30
2018-09-18T07:56:45.991Z,20.50
2018-09-18T08:37:01.673Z,22.90
2018-09-18T08:44:31.732Z,23.30
2018-09-18T08:52:02.372Z,23.40
2018-09-18T08:59:32.529Z,23.70
2018-09-18T09:02:02.956Z,23.90
2018-09-18T09:04:33.964Z,24.00
2018-09-18T09:09:34.635Z,24.30
2018-09-18T09:12:05.559Z,24.30
2018-09-18T09:14:35.971Z,24.40
2018-09-18T09:19:36.111Z,24.60
2018-09-18T09:27:06.771Z,24.90
2018-09-18T09:32:07.203Z,25.00
2018-09-18T09:34:37.874Z,25.10
2018-09-18T09:39:37.973Z,25.40
2018-09-18T09:47:08.299Z,25.50
2018-09-18T09:59:38.122Z,25.90
2018-09-18T10:05:43.307Z,26.00
2018-09-18T10:10:43.925Z,26.20
2018-09-18T10:13:14.512Z,26.30
2018-09-18T10:15:45.352Z,26.40
2018-09-18T10:18:16.514Z,26.50
2018-09-18T10:23:16.369Z,26.50
2018-09-18T10:53:16.459Z,27.40
2018-09-18T11:00:46.473Z,27.50
2018-09-18T11:08:17.839Z,27.70
2018-09-18T11:10:48.366Z,27.70
2018-09-18T11:18:18.371Z,27.90
2018-09-18T11:30:48.425Z,28.30
2018-09-18T11:38:18.927Z,28.50
2018-09-18T11:43:20.055Z,28.70
2018-09-18T11:48:20.690Z,28.80
2018-09-18T11:50:51.628Z,28.80
2018-09-18T11:55:52.048Z,28.70
2018-09-18T12:03:23.962Z,28.80
2018-09-18T12:08:24.548Z,28.90
2018-09-18T12:10:55.573Z,29.10
2018-09-18T12:13:26.203Z,28.90
2018-09-18T12:40:56.580Z,29.90
2018-09-18T12:43:27.260Z,30.00
2018-09-18T12:45:57.991Z,30.10
2018-09-18T12:50:58.202Z,30.10
2018-09-18T12:58:29.044Z,30.50
2018-09-18T13:01:00.179Z,30.50
2018-09-18T13:08:31.942Z,30.30
2018-09-18T13:23:32.157Z,30.40
2018-09-18T13:36:02.872Z,31.00
2018-09-18T13:38:33.810Z,31.00
2018-09-18T13:46:04.396Z,31.40
2018-09-18T14:33:33.770Z,30.50
2018-09-18T14:38:34.453Z,30.40
2018-09-18T14:46:04.853Z,30.30
2018-09-18T14:48:35.684Z,30.10
2018-09-18T14:51:07.226Z,30.00
2018-09-18T14:53:37.543Z,30.00
2018-09-18T14:56:07.884Z,29.90
2018-09-18T15:01:09.013Z,30.00
2018-09-18T15:03:40.063Z,29.90
2018-09-18T15:08:40.902Z,29.80
2018-09-18T15:13:41.469Z,29.70
2018-09-18T15:16:12.378Z,29.50
2018-09-18T15:28:44.057Z,28.90
2018-09-18T15:43:44.083Z,28.50
2018-09-18T15:51:14.787Z,28.30
2018-09-18T15:53:45.387Z,28.30
2018-09-18T15:56:16.264Z,28.20
2018-09-18T16:01:17.386Z,28.10
2018-09-18T16:03:47.715Z,28.00
2018-09-18T16:06:18.472Z,28.00
2018-09-18T16:18:47.905Z,27.80
2018-09-18T16:28:48.850Z,27.70
2018-09-18T16:31:19.244Z,27.70
2018-09-18T16:33:49.966Z,27.60
2018-09-18T16:38:50.241Z,27.60
2018-09-18T16:43:51.369Z,27.40
2018-09-18T16:46:22.284Z,27.30
2018-09-18T17:01:22.468Z,26.90
2018-09-18T17:11:26.626Z,26.60
2018-09-18T17:16:27.394Z,26.50
2018-09-18T17:18:58.138Z,26.40
2018-09-18T17:26:28.114Z,26.30
2018-09-18T17:39:00.105Z,25.80
2018-09-18T17:49:00.590Z,25.40
2018-09-18T17:51:31.306Z,25.50
2018-09-18T17:54:02.447Z,25.50
2018-09-18T18:01:34.525Z,25.20
2018-09-18T18:06:37.684Z,25.10
2018-09-18T18:09:12.562Z,25.00
2018-09-18T18:16:48.563Z,24.90
2018-09-18T18:29:28.286Z,24.80
2018-09-18T18:37:04.860Z,24.40
2018-09-18T18:39:38.169Z,24.40
2018-09-18T18:44:42.180Z,24.30
2018-09-18T18:49:46.821Z,24.20
2018-09-18T18:52:19.471Z,24.20
2018-09-18T19:04:58.503Z,23.90
2018-09-18T19:10:03.769Z,23.80
2018-09-18T19:12:36.091Z,23.70
2018-09-18T19:17:40.203Z,23.60
2018-09-18T19:32:53.719Z,23.40
2018-09-18T19:35:26.649Z,23.40
2018-09-18T19:37:59.943Z,23.40
2018-09-18T19:43:05.408Z,23.30
2018-09-18T19:45:38.305Z,23.30
2018-09-18T19:50:42.673Z,23.30
2018-09-18T19:53:16.103Z,23.20
2018-09-18T20:05:56.411Z,23.20
2018-09-18T20:10:59.766Z,23.10
2018-09-18T20:13:31.808Z,22.90
2018-09-18T20:18:35.783Z,22.90
2018-09-18T20:23:38.521Z,22.70
2018-09-18T20:28:41.832Z,22.70
2018-09-18T20:36:14.096Z,22.60
2018-09-18T20:41:14.510Z,22.60
2018-09-18T20:48:45.386Z,22.60
2018-09-18T20:53:45.825Z,22.60
2018-09-18T20:56:16.263Z,22.60
2018-09-18T21:03:46.839Z,22.50
2018-09-18T21:06:17.163Z,22.50
2018-09-18T21:08:48.260Z,22.50
2018-09-18T21:21:18.627Z,22.30
2018-09-18T21:43:49.381Z,22.10
2018-09-18T22:03:48.393Z,22.00
2018-09-18T22:21:19.623Z,22.00
2018-09-18T22:28:49.812Z,22.00
2018-09-18T22:31:20.260Z,21.90
2018-09-18T22:43:49.659Z,21.80
2018-09-18T22:48:49.861Z,21.70
2018-09-18T22:51:20.593Z,21.70
2018-09-18T22:56:21.333Z,21.80
2018-09-18T22:58:51.778Z,21.70
2018-09-18T23:01:22.523Z,21.60
2018-09-18T23:13:52.041Z,21.70
2018-09-18T23:16:22.465Z,21.70
2018-09-18T23:21:24.203Z,21.60
2018-09-18T23:26:24.394Z,21.60
2018-09-18T23:36:24.796Z,21.70
2018-09-18T23:38:55.401Z,21.70
2018-09-18T23:41:25.847Z,21.70
2018-09-18T23:43:56.203Z,21.70
2018-09-18T23:48:56.747Z,21.70
2018-09-18T23:51:27.413Z,21.80
2018-09-18T23:53:57.807Z,21.80
2018-09-18T23:56:28.530Z,21.80
